createdAt,value
2017-05-26T00:00:27.452Z,75.56
2017-05-26T00:01:08.337Z,75.66
2017-05-26T00:01:49.227Z,75.76
2017-05-26T00:02:30.097Z,75.37
2017-05-26T00:03:10.985Z,74.9
2017-05-26T00:03:51.872Z,74.61
2017-05-26T00:04:32.814Z,74.9
2017-05-26T00:05:13.726Z,74.7
2017-05-26T00:05:54.589Z,74.22
2017-05-26T00:06:35.454Z,74.22
2017-05-26T00:07:16.314Z,75.47
2017-05-26T00:07:57.189Z,75.56
2017-05-26T00:08:38.119Z,74.99
2017-05-26T00:09:18.988Z,75.47
2017-05-26T00:09:59.908Z,74.7
2017-05-26T00:10:40.797Z,74.99
2017-05-26T00:11:21.664Z,74.8
2017-05-26T00:12:02.529Z,75.56
2017-05-26T00:12:43.405Z,76.42
2017-05-26T00:13:24.312Z,76.81
2017-05-26T00:14:05.188Z,76.42
2017-05-26T00:14:46.073Z,76.23
2017-05-26T00:15:26.988Z,76.52
2017-05-26T00:16:07.874Z,76.81
2017-05-26T00:16:48.751Z,76.9
2017-05-26T00:17:29.647Z,77.09
2017-05-26T00:18:10.540Z,77.19
2017-05-26T00:18:51.411Z,77
2017-05-26T00:19:32.303Z,77.09
2017-05-26T00:20:13.209Z,77.57
2017-05-26T00:20:54.077Z,77.48
2017-05-26T00:21:34.943Z,77.67
2017-05-26T00:22:15.821Z,77.09
2017-05-26T00:22:56.744Z,77.67
2017-05-26T00:23:37.611Z,77.67
2017-05-26T00:24:18.485Z,77.19
2017-05-26T00:24:59.367Z,77.48
2017-05-26T00:25:40.266Z,77.38
2017-05-26T00:26:21.151Z,77.67
2017-05-26T00:27:02.025Z,77.48
2017-05-26T00:27:42.930Z,77.19
2017-05-26T00:28:23.821Z,77.57
2017-05-26T00:29:04.688Z,77.57
2017-05-26T00:29:45.636Z,77.38
2017-05-26T00:30:26.497Z,77.67
2017-05-26T00:31:07.363Z,77.67
2017-05-26T00:31:48.239Z,77.86
2017-05-26T00:32:29.165Z,77.76
2017-05-26T00:33:10.029Z,77.57
2017-05-26T00:33:50.896Z,77.48
2017-05-26T00:34:31.769Z,77.86
2017-05-26T00:35:12.658Z,77.95
2017-05-26T00:35:53.563Z,78.24
2017-05-26T00:36:34.433Z,77.76
2017-05-26T00:37:15.303Z,77.95
2017-05-26T00:39:14.082Z,78.43
2017-05-26T00:39:54.968Z,78.43
2017-05-26T00:40:35.871Z,78.63
2017-05-26T00:41:16.756Z,78.43
2017-05-26T00:41:57.659Z,78.43
2017-05-26T00:42:38.547Z,78.53
2017-05-26T00:43:19.425Z,78.72
2017-05-26T00:44:00.318Z,78.63
2017-05-26T00:44:41.212Z,78.53
2017-05-26T00:45:22.088Z,79.2
2017-05-26T00:46:02.977Z,79.1
2017-05-26T00:46:43.869Z,78.91
2017-05-26T00:47:24.760Z,79.39
2017-05-26T00:48:05.641Z,79.29
2017-05-26T00:48:46.525Z,79.2
2017-05-26T00:49:27.421Z,79.2
2017-05-26T00:50:08.310Z,79
2017-05-26T00:50:49.203Z,79.39
2017-05-26T00:51:30.101Z,79.49
2017-05-26T00:52:10.995Z,79.29
2017-05-26T00:52:51.883Z,79.2
2017-05-26T00:53:32.777Z,79.39
2017-05-26T00:54:13.681Z,79.49
2017-05-26T00:54:54.575Z,79.87
2017-05-26T00:55:35.461Z,79.58
2017-05-26T00:56:16.345Z,80.06
2017-05-26T00:56:57.238Z,80.54
2017-05-26T00:57:38.123Z,80.82
2017-05-26T00:58:19.011Z,80.63
2017-05-26T00:58:59.884Z,80.44
2017-05-26T00:59:40.768Z,80.82
2017-05-26T01:00:21.673Z,81.02
2017-05-26T01:01:02.535Z,81.02
2017-05-26T01:01:43.416Z,81.02
2017-05-26T01:02:24.304Z,81.21
2017-05-26T01:03:05.194Z,81.59
2017-05-26T01:03:46.075Z,81.21
2017-05-26T01:04:26.950Z,81.21
2017-05-26T01:05:07.874Z,82.07
2017-05-26T01:05:48.756Z,82.17
2017-05-26T01:06:29.620Z,82.26
2017-05-26T01:07:10.498Z,82.74
2017-05-26T01:07:51.424Z,83.03
2017-05-26T01:08:32.295Z,83.5
2017-05-26T01:09:13.180Z,83.5
2017-05-26T01:09:54.084Z,83.69
2017-05-26T01:10:34.959Z,83.5
2017-05-26T01:12:28.556Z,83.79
2017-05-26T01:13:09.446Z,83.6
2017-05-26T01:13:50.342Z,84.08
2017-05-26T01:14:31.205Z,84.27
2017-05-26T01:15:12.079Z,84.65
2017-05-26T01:15:52.980Z,84.55
2017-05-26T01:16:33.877Z,84.46
2017-05-26T01:17:14.739Z,84.75
2017-05-26T01:17:55.623Z,85.03
2017-05-26T01:18:36.531Z,84.84
2017-05-26T01:19:17.409Z,84.94
2017-05-26T01:19:58.283Z,85.03
2017-05-26T01:20:39.158Z,85.61
2017-05-26T01:21:20.065Z,85.71
2017-05-26T01:22:00.954Z,85.41
2017-05-26T01:22:41.831Z,85.41
2017-05-26T01:23:22.748Z,85.99
2017-05-26T01:24:03.613Z,85.8
2017-05-26T01:24:44.491Z,85.8
2017-05-26T01:25:25.382Z,85.99
2017-05-26T01:26:06.275Z,85.99
2017-05-26T01:26:47.157Z,86.28
2017-05-26T01:27:28.029Z,86.85
2017-05-26T01:28:08.909Z,86.76
2017-05-26T01:28:49.807Z,85.89
2017-05-26T01:29:30.691Z,86.94
2017-05-26T01:30:11.577Z,86.94
2017-05-26T01:30:52.464Z,86.76
2017-05-26T01:31:33.347Z,87.52
2017-05-26T01:32:14.233Z,87.81
2017-05-26T01:32:55.115Z,87.9
2017-05-26T01:33:36.025Z,88
2017-05-26T01:34:16.898Z,87.76
2017-05-26T01:34:57.766Z,87.71
2017-05-26T01:35:38.647Z,88.57
2017-05-26T01:36:19.536Z,88.15
2017-05-26T01:37:00.426Z,88.19
2017-05-26T01:37:41.309Z,88.95
2017-05-26T01:38:22.231Z,88.86
2017-05-26T01:39:03.108Z,88.95
2017-05-26T01:39:43.994Z,88.76
2017-05-26T01:40:24.925Z,89.2
2017-05-26T01:41:05.807Z,89.34
2017-05-26T01:41:46.715Z,89.62
2017-05-26T01:42:27.604Z,90.01
2017-05-26T01:43:08.481Z,89.72
2017-05-26T01:43:49.381Z,90.73
2017-05-26T01:44:30.287Z,90.92
2017-05-26T01:45:11.187Z,91.11
2017-05-26T01:45:52.075Z,91.25
2017-05-26T01:46:32.955Z,91.2
2017-05-26T01:47:13.840Z,90.92
2017-05-26T01:47:54.855Z,91.16
2017-05-26T01:48:35.740Z,91.73
2017-05-26T01:49:16.681Z,91.3
2017-05-26T01:49:57.551Z,91.44
2017-05-26T01:50:38.430Z,92.45
2017-05-26T01:51:19.330Z,92.54
2017-05-26T01:52:00.215Z,93.12
2017-05-26T01:52:41.094Z,92.83
2017-05-26T01:53:22.002Z,93.02
2017-05-26T01:54:02.909Z,92.83
2017-05-26T01:54:43.773Z,93.21
2017-05-26T01:55:24.657Z,93.79
2017-05-26T01:56:05.567Z,94.17
2017-05-26T01:56:46.436Z,94.17
2017-05-26T01:57:27.318Z,94.17
2017-05-26T01:58:08.202Z,95.32
2017-05-26T01:58:49.090Z,95.32
2017-05-26T01:59:29.996Z,95.41
2017-05-26T02:00:10.890Z,94.84
2017-05-26T02:00:51.784Z,95.12
2017-05-26T02:01:32.669Z,95.89
2017-05-26T02:02:13.536Z,95.89
2017-05-26T02:02:54.412Z,95.51
2017-05-26T02:03:35.319Z,95.51
2017-05-26T02:04:16.208Z,95.98
2017-05-26T02:04:57.091Z,96.47
2017-05-26T02:05:37.974Z,96.84
2017-05-26T02:06:18.859Z,97.04
2017-05-26T02:06:59.755Z,97.04
2017-05-26T02:07:40.650Z,96.75
2017-05-26T02:08:21.530Z,97.04
2017-05-26T02:09:02.415Z,97.52
2017-05-26T02:09:43.295Z,97.42
2017-05-26T02:10:24.208Z,97.42
2017-05-26T02:11:05.107Z,97.52
2017-05-26T02:11:46.001Z,97.9
2017-05-26T02:12:26.899Z,97.8
2017-05-26T02:13:07.788Z,97.71
2017-05-26T02:13:48.675Z,97.9
2017-05-26T02:14:29.564Z,98.09
2017-05-26T02:15:10.441Z,98.09
2017-05-26T02:15:51.325Z,98.18
2017-05-26T02:16:32.213Z,98.18
2017-05-26T02:17:13.100Z,98.28
2017-05-26T02:17:53.980Z,99.04
2017-05-26T02:18:34.875Z,98.47
2017-05-26T02:19:15.749Z,98.85
2017-05-26T02:19:56.629Z,99.04
2017-05-26T02:20:37.512Z,99.14
2017-05-26T02:21:18.407Z,99.24
2017-05-26T02:21:59.295Z,98.75
2017-05-26T02:22:40.183Z,99.04
2017-05-26T02:23:21.086Z,98.95
2017-05-26T02:24:01.978Z,99.33
2017-05-26T02:24:42.864Z,99.24
2017-05-26T02:25:23.749Z,99.52
2017-05-26T02:26:04.632Z,99.99
2017-05-26T02:26:45.520Z,99.99
2017-05-26T02:27:26.398Z,99.9
2017-05-26T02:28:07.282Z,99.99
2017-05-26T02:28:48.185Z,99.99
2017-05-26T02:29:29.044Z,99.99
2017-05-26T02:30:09.952Z,99.99
2017-05-26T02:30:50.846Z,99.99
2017-05-26T02:31:31.721Z,99.99
2017-05-26T02:32:12.604Z,99.99
2017-05-26T02:32:53.485Z,99.99
2017-05-26T02:33:34.373Z,99.99
2017-05-26T02:34:15.257Z,99.99
2017-05-26T02:34:56.182Z,99.99
2017-05-26T02:35:37.065Z,99.99
2017-05-26T02:36:17.951Z,99.99
2017-05-26T02:36:58.839Z,99.99
2017-05-26T02:37:39.726Z,99.99
2017-05-26T02:38:20.611Z,99.99
2017-05-26T02:39:01.517Z,99.99
2017-05-26T02:39:42.410Z,99.99
2017-05-26T02:40:23.302Z,99.99
2017-05-26T02:41:04.208Z,99.99
2017-05-26T02:41:45.091Z,99.99
2017-05-26T02:42:25.977Z,99.99
2017-05-26T02:43:06.867Z,99.99
2017-05-26T02:43:47.757Z,99.99
2017-05-26T02:44:28.638Z,99.99
2017-05-26T02:45:09.530Z,99.99
2017-05-26T02:45:50.416Z,99.99
2017-05-26T02:46:31.295Z,99.99
2017-05-26T02:47:12.222Z,99.99
2017-05-26T02:47:53.079Z,99.99
2017-05-26T02:48:33.957Z,99.99
2017-05-26T02:49:14.838Z,99.99
2017-05-26T02:49:55.722Z,99.99
2017-05-26T02:50:36.624Z,99.99
2017-05-26T02:51:17.503Z,99.99
2017-05-26T02:51:58.393Z,99.99
2017-05-26T02:52:39.286Z,99.99
2017-05-26T02:53:20.182Z,99.99
2017-05-26T02:54:01.069Z,99.99
2017-05-26T02:54:41.964Z,99.99
2017-05-26T02:55:22.846Z,99.99
2017-05-26T02:56:03.725Z,99.99
2017-05-26T02:56:44.635Z,99.99
2017-05-26T02:57:25.528Z,99.99
2017-05-26T02:58:06.408Z,99.99
2017-05-26T02:58:47.283Z,99.99
2017-05-26T02:59:28.171Z,99.99
2017-05-26T03:00:09.050Z,99.99
2017-05-26T03:00:49.943Z,99.99
2017-05-26T03:01:30.816Z,99.99
2017-05-26T03:03:24.447Z,99.99
2017-05-26T03:04:05.314Z,99.99
2017-05-26T03:04:46.196Z,99.99
2017-05-26T03:05:27.115Z,99.99
2017-05-26T03:06:07.972Z,99.99
2017-05-26T03:06:48.849Z,99.99
2017-05-26T03:07:29.733Z,99.99
2017-05-26T03:08:10.633Z,99.99
2017-05-26T03:08:51.518Z,99.99
2017-05-26T03:09:32.406Z,99.99
2017-05-26T03:10:13.294Z,99.99
2017-05-26T03:10:54.176Z,99.99
2017-05-26T03:11:35.056Z,99.99
2017-05-26T03:12:15.938Z,99.99
2017-05-26T03:12:56.825Z,99.99
2017-05-26T03:13:37.714Z,99.99
2017-05-26T03:14:18.591Z,99.99
2017-05-26T03:14:59.471Z,99.99
2017-05-26T03:15:40.363Z,99.99
2017-05-26T03:16:21.260Z,99.99
2017-05-26T03:17:02.150Z,99.99
2017-05-26T03:17:43.030Z,99.99
2017-05-26T03:18:23.922Z,99.99
2017-05-26T03:19:04.801Z,99.99
2017-05-26T03:19:45.683Z,99.99
2017-05-26T03:20:26.573Z,99.99
2017-05-26T03:21:07.561Z,99.99
2017-05-26T03:21:48.472Z,99.99
2017-05-26T03:22:29.360Z,99.99
2017-05-26T03:23:10.268Z,99.99
2017-05-26T03:23:51.162Z,99.99
2017-05-26T03:24:32.054Z,99.99
2017-05-26T03:25:12.940Z,99.99
2017-05-26T03:25:53.823Z,99.99
2017-05-26T03:26:34.723Z,99.99
2017-05-26T03:27:15.622Z,99.99
2017-05-26T03:27:56.516Z,99.99
2017-05-26T03:28:37.402Z,99.99
2017-05-26T03:29:18.286Z,99.99
2017-05-26T03:29:59.194Z,99.99
2017-05-26T03:30:40.079Z,99.99
2017-05-26T03:31:20.976Z,99.99
2017-05-26T03:32:01.862Z,99.99
2017-05-26T03:32:42.748Z,99.99
2017-05-26T03:33:23.640Z,99.99
2017-05-26T03:34:04.514Z,99.99
2017-05-26T03:34:45.416Z,99.99
2017-05-26T03:35:26.302Z,99.99
2017-05-26T03:36:07.187Z,99.99
2017-05-26T03:36:48.075Z,99.99
2017-05-26T03:37:28.957Z,99.99
2017-05-26T03:38:09.831Z,99.99
2017-05-26T03:38:50.728Z,99.99
2017-05-26T03:39:31.629Z,99.99
2017-05-26T03:40:12.495Z,99.99
2017-05-26T03:40:53.361Z,99.99
2017-05-26T03:41:34.252Z,99.99
2017-05-26T03:42:15.139Z,99.99
2017-05-26T03:42:56.045Z,99.99
2017-05-26T03:43:36.928Z,99.99
2017-05-26T03:44:17.822Z,99.99
2017-05-26T03:44:58.700Z,99.99
2017-05-26T03:45:39.578Z,99.99
2017-05-26T03:46:20.465Z,99.99
2017-05-26T03:47:01.348Z,99.99
2017-05-26T03:47:42.238Z,99.99
2017-05-26T03:48:23.119Z,99.99
2017-05-26T03:49:03.994Z,99.99
2017-05-26T03:49:44.883Z,99.99
2017-05-26T03:50:25.766Z,99.99
2017-05-26T03:51:06.647Z,99.99
2017-05-26T03:51:47.526Z,99.99
2017-05-26T03:52:28.443Z,99.99
2017-05-26T03:53:09.321Z,99.99
2017-05-26T03:53:50.206Z,99.99
2017-05-26T03:54:31.099Z,99.99
2017-05-26T03:55:11.996Z,99.99
2017-05-26T03:55:52.884Z,99.99
2017-05-26T03:56:33.769Z,99.99
2017-05-26T03:57:14.660Z,99.99
2017-05-26T03:57:55.553Z,99.99
2017-05-26T03:58:36.446Z,99.99
2017-05-26T03:59:17.338Z,99.99
2017-05-26T03:59:58.232Z,99.99
2017-05-26T04:00:39.149Z,99.99
2017-05-26T04:01:20.025Z,99.99
2017-05-26T04:02:00.912Z,99.99
2017-05-26T04:02:41.810Z,99.99
2017-05-26T04:03:22.700Z,99.99
2017-05-26T04:04:03.603Z,99.99
2017-05-26T04:04:44.474Z,99.99
2017-05-26T04:05:25.359Z,99.99
2017-05-26T04:06:06.270Z,99.99
2017-05-26T04:06:47.150Z,99.99
2017-05-26T04:07:28.045Z,99.99
2017-05-26T04:08:08.928Z,99.99
2017-05-26T04:08:49.803Z,99.99
2017-05-26T04:09:30.697Z,99.99
2017-05-26T04:10:11.575Z,99.99
2017-05-26T04:10:52.472Z,99.99
2017-05-26T04:11:33.354Z,99.99
2017-05-26T04:12:14.249Z,99.99
2017-05-26T04:12:55.119Z,99.99
2017-05-26T04:13:36.000Z,99.99
2017-05-26T04:14:16.894Z,99.99
2017-05-26T04:14:57.796Z,99.99
2017-05-26T04:15:38.683Z,99.99
2017-05-26T04:16:19.570Z,99.99
2017-05-26T04:17:00.460Z,99.99
2017-05-26T04:17:41.350Z,99.99
2017-05-26T04:18:22.244Z,99.99
2017-05-26T04:19:03.134Z,99.99
2017-05-26T04:19:44.025Z,99.99
2017-05-26T04:20:24.919Z,99.99
2017-05-26T04:21:05.813Z,99.99
2017-05-26T04:21:46.704Z,99.99
2017-05-26T04:22:27.591Z,99.99
2017-05-26T04:23:08.488Z,99.99
2017-05-26T04:23:49.372Z,99.99
2017-05-26T04:24:30.246Z,99.99
2017-05-26T04:25:11.160Z,99.99
2017-05-26T04:25:52.037Z,99.99
2017-05-26T04:26:32.919Z,99.99
2017-05-26T04:27:13.820Z,99.99
2017-05-26T04:27:54.699Z,99.99
2017-05-26T04:28:35.584Z,99.99
2017-05-26T04:29:16.471Z,99.99
2017-05-26T04:29:57.360Z,99.99
2017-05-26T04:30:38.252Z,99.99
2017-05-26T04:31:19.116Z,99.99
2017-05-26T04:31:59.995Z,99.99
2017-05-26T04:32:40.881Z,99.99
2017-05-26T04:33:21.772Z,99.99
2017-05-26T04:34:02.649Z,99.99
2017-05-26T04:34:43.524Z,99.99
2017-05-26T04:35:24.417Z,99.99
2017-05-26T04:36:05.302Z,99.99
2017-05-26T04:36:46.189Z,99.99
2017-05-26T04:37:27.079Z,99.99
2017-05-26T04:38:07.961Z,99.99
2017-05-26T04:38:48.850Z,99.99
2017-05-26T04:39:29.748Z,99.99
2017-05-26T04:40:11.319Z,99.99
2017-05-26T04:40:52.208Z,99.99
2017-05-26T04:41:33.096Z,99.99
2017-05-26T04:42:13.977Z,99.99
2017-05-26T04:42:54.888Z,99.99
2017-05-26T04:43:35.766Z,99.99
2017-05-26T04:44:16.654Z,99.99
2017-05-26T04:44:57.551Z,99.99
2017-05-26T04:45:38.443Z,99.99
2017-05-26T04:46:19.340Z,99.99
2017-05-26T04:47:00.213Z,99.99
2017-05-26T04:47:41.109Z,99.99
2017-05-26T04:48:22.006Z,99.99
2017-05-26T04:49:02.892Z,99.99
2017-05-26T04:49:43.821Z,99.99
2017-05-26T04:50:24.704Z,99.99
2017-05-26T04:51:05.595Z,99.99
2017-05-26T04:51:46.474Z,99.99
2017-05-26T04:52:27.370Z,99.99
2017-05-26T04:53:08.266Z,99.99
2017-05-26T04:53:49.170Z,99.99
2017-05-26T04:54:30.059Z,99.99
2017-05-26T04:55:10.975Z,99.99
2017-05-26T04:55:51.844Z,99.99
2017-05-26T04:56:32.737Z,99.99
2017-05-26T04:57:13.637Z,99.99
2017-05-26T04:57:54.953Z,99.99
2017-05-26T04:58:35.851Z,99.99
2017-05-26T04:59:16.741Z,99.99
2017-05-26T04:59:57.624Z,99.99
2017-05-26T05:00:38.510Z,99.99
2017-05-26T05:01:19.397Z,99.99
2017-05-26T05:02:00.291Z,99.99
2017-05-26T05:02:41.222Z,99.99
2017-05-26T05:03:22.101Z,99.99
2017-05-26T05:04:02.986Z,99.99
2017-05-26T05:04:43.875Z,99.99
2017-05-26T05:05:24.756Z,99.99
2017-05-26T05:06:05.674Z,99.99
2017-05-26T05:06:47.559Z,99.99
2017-05-26T05:07:28.451Z,99.99
2017-05-26T05:08:09.344Z,99.99
2017-05-26T05:08:50.224Z,99.99
2017-05-26T05:09:31.106Z,99.99
2017-05-26T05:10:12.835Z,99.99
2017-05-26T05:10:54.351Z,99.99
2017-05-26T05:11:35.242Z,99.99
2017-05-26T05:12:16.129Z,99.99
2017-05-26T05:12:57.023Z,99.99
2017-05-26T05:13:37.917Z,99.99
2017-05-26T05:14:18.796Z,99.99
2017-05-26T05:14:59.691Z,99.99
2017-05-26T05:15:40.594Z,99.99
2017-05-26T05:16:21.483Z,99.99
2017-05-26T05:17:02.371Z,99.99
2017-05-26T05:17:43.256Z,99.99
2017-05-26T05:18:24.154Z,99.99
2017-05-26T05:19:05.042Z,99.99
2017-05-26T05:19:45.956Z,99.99
2017-05-26T05:20:26.859Z,99.99
2017-05-26T05:21:07.747Z,99.99
2017-05-26T05:21:48.641Z,99.99
2017-05-26T05:22:29.536Z,99.99
2017-05-26T05:23:10.430Z,99.99
2017-05-26T05:23:51.318Z,99.99
2017-05-26T05:24:32.195Z,99.99
2017-05-26T05:25:13.075Z,99.99
2017-05-26T05:25:53.973Z,99.99
2017-05-26T05:26:34.871Z,99.99
2017-05-26T05:27:15.778Z,99.99
2017-05-26T05:27:56.650Z,99.99
2017-05-26T05:28:37.527Z,99.99
2017-05-26T05:29:18.408Z,99.99
2017-05-26T05:29:59.284Z,99.99
2017-05-26T05:31:37.686Z,99.99
2017-05-26T05:32:18.582Z,99.99
2017-05-26T05:32:59.471Z,99.99
2017-05-26T05:33:40.371Z,99.99
2017-05-26T05:34:21.259Z,99.99
2017-05-26T05:35:02.146Z,99.99
2017-05-26T05:35:43.025Z,99.99
2017-05-26T05:36:23.901Z,99.99
2017-05-26T05:37:04.784Z,99.99
2017-05-26T05:37:45.680Z,99.99
2017-05-26T05:38:26.593Z,99.99
2017-05-26T05:39:07.486Z,99.99
2017-05-26T05:39:48.371Z,99.99
2017-05-26T05:40:29.260Z,99.99
2017-05-26T05:41:10.145Z,99.99
2017-05-26T05:41:51.034Z,99.99
2017-05-26T05:42:31.909Z,99.99
2017-05-26T05:43:12.782Z,99.99
2017-05-26T05:43:53.675Z,99.99
2017-05-26T05:44:34.564Z,99.99
2017-05-26T05:45:15.464Z,99.99
2017-05-26T05:45:56.354Z,99.99
2017-05-26T05:46:37.260Z,99.99
2017-05-26T05:47:18.138Z,99.99
2017-05-26T05:47:59.019Z,99.99
2017-05-26T05:48:39.920Z,99.99
2017-05-26T05:49:20.806Z,99.99
2017-05-26T05:50:01.707Z,99.99
2017-05-26T05:50:42.607Z,99.99
2017-05-26T05:51:23.490Z,99.99
2017-05-26T05:52:04.376Z,99.99
2017-05-26T05:52:45.275Z,99.99
2017-05-26T05:53:26.155Z,99.99
2017-05-26T05:54:07.049Z,99.99
2017-05-26T05:54:47.951Z,99.99
2017-05-26T05:55:28.835Z,99.99
2017-05-26T05:56:09.754Z,99.99
2017-05-26T05:56:50.649Z,99.99
2017-05-26T05:57:31.550Z,99.99
2017-05-26T05:58:12.452Z,99.99
2017-05-26T05:58:53.334Z,99.99
2017-05-26T05:59:34.228Z,99.99
2017-05-26T06:00:15.130Z,99.99
2017-05-26T06:00:56.013Z,99.99
2017-05-26T06:01:36.897Z,99.99
2017-05-26T06:02:17.802Z,99.99
2017-05-26T06:02:58.690Z,99.99
2017-05-26T06:03:39.603Z,99.99
2017-05-26T06:04:20.483Z,99.99
2017-05-26T06:05:01.372Z,99.99
2017-05-26T06:05:42.288Z,99.99
2017-05-26T06:06:23.159Z,99.99
2017-05-26T06:07:04.030Z,99.99
2017-05-26T06:07:44.935Z,99.99
2017-05-26T06:08:25.832Z,99.99
2017-05-26T06:09:06.718Z,99.99
2017-05-26T06:09:47.597Z,99.99
2017-05-26T06:10:28.510Z,99.99
2017-05-26T06:11:09.402Z,99.99
2017-05-26T06:11:50.858Z,99.99
2017-05-26T06:12:31.769Z,99.99
2017-05-26T06:13:12.681Z,99.99
2017-05-26T06:14:41.765Z,99.99
2017-05-26T06:15:22.650Z,99.99
2017-05-26T06:16:03.548Z,99.99
2017-05-26T06:16:44.435Z,99.99
2017-05-26T06:17:25.331Z,99.99
2017-05-26T06:18:06.218Z,99.99
2017-05-26T06:18:47.108Z,99.99
2017-05-26T06:19:27.980Z,99.99
2017-05-26T06:20:08.873Z,99.99
2017-05-26T06:20:49.762Z,99.99
2017-05-26T06:21:30.641Z,99.99
2017-05-26T06:22:11.508Z,99.99
2017-05-26T06:22:52.398Z,99.99
2017-05-26T06:23:33.297Z,99.99
2017-05-26T06:24:14.186Z,99.99
2017-05-26T06:24:55.068Z,99.99
2017-05-26T06:25:35.959Z,99.99
2017-05-26T06:26:16.853Z,99.99
2017-05-26T06:26:57.742Z,99.99
2017-05-26T06:27:38.650Z,99.99
2017-05-26T06:28:19.524Z,99.99
2017-05-26T06:29:00.406Z,99.99
2017-05-26T06:29:41.309Z,99.99
2017-05-26T06:30:22.201Z,99.99
2017-05-26T06:31:03.083Z,99.99
2017-05-26T06:31:43.969Z,99.99
2017-05-26T06:32:24.863Z,99.99
2017-05-26T06:33:05.746Z,99.99
2017-05-26T06:33:46.648Z,99.99
2017-05-26T06:34:27.538Z,99.99
2017-05-26T06:35:08.429Z,99.99
2017-05-26T06:35:49.312Z,99.99
2017-05-26T06:36:33.105Z,99.99
2017-05-26T06:37:13.982Z,99.99
2017-05-26T06:37:54.879Z,99.99
2017-05-26T06:38:35.772Z,99.99
2017-05-26T06:39:16.776Z,99.99
2017-05-26T06:39:58.117Z,99.99
2017-05-26T06:40:39.021Z,99.99
2017-05-26T06:41:20.080Z,99.99
2017-05-26T06:42:00.977Z,99.99
2017-05-26T06:42:41.865Z,99.99
2017-05-26T06:43:22.758Z,99.99
2017-05-26T06:44:03.646Z,99.99
2017-05-26T06:44:44.525Z,99.99
2017-05-26T06:45:25.401Z,99.99
2017-05-26T06:46:06.315Z,99.99
2017-05-26T06:46:47.188Z,99.99
2017-05-26T06:47:28.073Z,99.99
2017-05-26T06:48:08.962Z,99.99
2017-05-26T06:48:49.861Z,99.99
2017-05-26T06:49:30.746Z,99.99
2017-05-26T06:50:11.622Z,99.99
2017-05-26T06:50:52.516Z,99.99
2017-05-26T06:51:33.403Z,99.99
2017-05-26T06:52:14.283Z,99.99
2017-05-26T06:52:55.189Z,99.99
2017-05-26T06:53:36.098Z,99.99
2017-05-26T06:54:16.997Z,99.99
2017-05-26T06:54:57.893Z,99.99
2017-05-26T06:55:38.777Z,99.99
2017-05-26T06:56:19.685Z,99.99
2017-05-26T06:57:00.602Z,99.99
2017-05-26T06:57:41.495Z,99.99
2017-05-26T06:58:22.391Z,99.99
2017-05-26T06:59:03.265Z,99.99
2017-05-26T06:59:44.153Z,99.99
2017-05-26T07:00:25.848Z,99.99
2017-05-26T07:01:06.736Z,99.99
2017-05-26T07:01:47.619Z,99.99
2017-05-26T07:02:28.505Z,99.99
2017-05-26T07:03:09.402Z,99.99
2017-05-26T07:03:50.286Z,99.99
2017-05-26T07:04:31.164Z,99.99
2017-05-26T07:05:12.046Z,99.99
2017-05-26T07:05:52.949Z,99.99
2017-05-26T07:06:33.831Z,99.99
2017-05-26T07:07:14.705Z,99.99
2017-05-26T07:07:55.596Z,99.99
2017-05-26T07:08:36.495Z,99.99
2017-05-26T07:09:17.372Z,99.99
2017-05-26T07:09:58.261Z,99.99
2017-05-26T07:10:39.179Z,99.99
2017-05-26T07:11:20.050Z,99.99
2017-05-26T07:12:00.929Z,99.99
2017-05-26T07:12:41.838Z,99.99
2017-05-26T07:13:22.720Z,99.99
2017-05-26T07:14:03.610Z,99.99
2017-05-26T07:14:44.500Z,99.99
2017-05-26T07:15:25.399Z,99.99
2017-05-26T07:16:06.316Z,99.99
2017-05-26T07:16:47.205Z,99.99
2017-05-26T07:17:28.084Z,99.99
2017-05-26T07:18:08.994Z,99.99
2017-05-26T07:18:49.884Z,99.99
2017-05-26T07:19:30.782Z,99.99
2017-05-26T07:20:11.682Z,99.99
2017-05-26T07:20:52.572Z,99.99
2017-05-26T07:21:33.473Z,99.99
2017-05-26T07:22:14.370Z,99.99
2017-05-26T07:22:55.245Z,99.99
2017-05-26T07:23:36.142Z,99.99
2017-05-26T07:24:17.895Z,99.99
2017-05-26T07:24:58.548Z,99.99
2017-05-26T07:25:41.015Z,99.99
2017-05-26T07:26:21.896Z,99.99
2017-05-26T07:27:02.788Z,99.99
2017-05-26T07:27:43.750Z,99.99
2017-05-26T07:28:24.656Z,99.99
2017-05-26T07:29:05.540Z,99.99
2017-05-26T07:29:47.035Z,99.99
2017-05-26T07:30:27.947Z,99.99
2017-05-26T07:31:08.836Z,99.99
2017-05-26T07:31:51.413Z,99.99
2017-05-26T07:32:31.605Z,99.99
2017-05-26T07:33:12.499Z,99.99
2017-05-26T07:33:53.403Z,99.99
2017-05-26T07:34:34.285Z,99.99
2017-05-26T07:35:15.175Z,99.99
2017-05-26T07:35:56.061Z,99.99
2017-05-26T07:36:36.974Z,99.99
2017-05-26T07:37:17.868Z,99.99
2017-05-26T07:37:58.750Z,99.99
2017-05-26T07:38:39.654Z,99.99
2017-05-26T07:39:20.543Z,99.99
2017-05-26T07:40:01.435Z,99.99
2017-05-26T07:40:42.330Z,99.99
2017-05-26T07:41:23.228Z,99.99
2017-05-26T07:42:04.144Z,99.99
2017-05-26T07:42:45.025Z,99.99
2017-05-26T07:43:25.916Z,99.99
2017-05-26T07:44:06.841Z,99.99
2017-05-26T07:44:47.735Z,99.99
2017-05-26T07:45:28.633Z,99.99
2017-05-26T07:46:09.516Z,99.99
2017-05-26T07:46:50.407Z,99.99
2017-05-26T07:47:31.316Z,99.99
2017-05-26T07:48:12.201Z,99.99
2017-05-26T07:48:53.097Z,99.99
2017-05-26T07:49:33.992Z,99.99
2017-05-26T07:50:14.891Z,99.99
2017-05-26T07:50:55.774Z,99.99
2017-05-26T07:51:36.667Z,99.99
2017-05-26T07:52:17.553Z,99.99
2017-05-26T07:52:58.439Z,99.99
2017-05-26T07:53:39.390Z,99.99
2017-05-26T07:54:20.306Z,99.99
2017-05-26T07:55:01.194Z,99.99
2017-05-26T07:55:42.087Z,99.99
2017-05-26T07:56:22.983Z,99.99
2017-05-26T07:57:03.869Z,99.99
2017-05-26T07:57:44.787Z,99.99
2017-05-26T07:58:25.673Z,99.99
2017-05-26T07:59:06.565Z,99.99
2017-05-26T07:59:47.467Z,99.99
2017-05-26T08:00:28.360Z,99.99
2017-05-26T08:01:09.241Z,99.99
2017-05-26T08:01:51.643Z,99.99
2017-05-26T08:02:32.554Z,99.99
2017-05-26T08:03:13.459Z,99.99
2017-05-26T08:03:54.364Z,99.99
2017-05-26T08:04:35.244Z,99.99
2017-05-26T08:05:16.126Z,99.99
2017-05-26T08:05:57.030Z,99.99
2017-05-26T08:06:37.914Z,99.99
2017-05-26T08:07:18.803Z,99.99
2017-05-26T08:07:59.718Z,99.99
2017-05-26T08:08:40.592Z,99.99
2017-05-26T08:09:21.480Z,99.99
2017-05-26T08:10:02.384Z,99.99
2017-05-26T08:10:43.267Z,99.99
2017-05-26T08:11:24.156Z,99.99
2017-05-26T08:12:05.058Z,99.99
2017-05-26T08:12:45.942Z,99.99
2017-05-26T08:13:26.831Z,99.99
2017-05-26T08:14:07.743Z,99.99
2017-05-26T08:14:48.616Z,99.99
2017-05-26T08:15:29.505Z,99.99
2017-05-26T08:16:10.417Z,99.99
2017-05-26T08:16:51.296Z,99.99
2017-05-26T08:17:32.178Z,99.99
2017-05-26T08:18:13.069Z,99.99
2017-05-26T08:18:53.959Z,99.99
2017-05-26T08:19:34.828Z,99.99
2017-05-26T08:20:15.719Z,99.99
2017-05-26T08:20:56.622Z,99.99
2017-05-26T08:21:37.505Z,99.99
2017-05-26T08:22:18.393Z,99.99
2017-05-26T08:22:59.284Z,99.99
2017-05-26T08:23:40.174Z,99.99
2017-05-26T08:24:21.048Z,99.99
2017-05-26T08:25:01.941Z,99.99
2017-05-26T08:25:42.845Z,99.99
2017-05-26T08:26:23.726Z,99.99
2017-05-26T08:27:04.620Z,99.99
2017-05-26T08:27:45.517Z,99.99
2017-05-26T08:28:26.409Z,99.99
2017-05-26T08:29:07.305Z,99.99
2017-05-26T08:29:48.204Z,99.99
2017-05-26T08:30:29.066Z,99.99
2017-05-26T08:31:10.004Z,99.99
2017-05-26T08:31:50.886Z,99.99
2017-05-26T08:32:31.769Z,99.99
2017-05-26T08:33:12.661Z,99.99
2017-05-26T08:33:53.560Z,99.91
2017-05-26T08:34:34.444Z,99.99
2017-05-26T08:35:15.353Z,99.99
2017-05-26T08:35:56.235Z,99.01
2017-05-26T08:36:37.123Z,99.19
2017-05-26T08:37:18.015Z,98.52
2017-05-26T08:37:59.897Z,98.24
2017-05-26T08:38:41.537Z,97.95
2017-05-26T08:39:22.443Z,99.01
2017-05-26T08:40:03.356Z,98.19
2017-05-26T08:40:44.284Z,98.33
2017-05-26T08:41:25.164Z,97.66
2017-05-26T08:42:06.069Z,97.76
2017-05-26T08:42:46.981Z,97.76
2017-05-26T08:43:27.854Z,97.18
2017-05-26T08:44:08.756Z,96.8
2017-05-26T08:44:49.629Z,97.18
2017-05-26T08:45:30.508Z,97.28
2017-05-26T08:46:11.425Z,96.8
2017-05-26T08:46:52.318Z,96.47
2017-05-26T08:47:33.208Z,96.51
2017-05-26T08:48:14.121Z,96.85
2017-05-26T08:48:55.017Z,97.47
2017-05-26T08:49:35.909Z,97.47
2017-05-26T08:50:16.803Z,97.95
2017-05-26T08:50:57.693Z,97.52
2017-05-26T08:51:38.606Z,96.47
2017-05-26T08:52:19.517Z,96.08
2017-05-26T08:53:00.425Z,94.64